createdAt,value
2023-04-15T00:00:11.314Z,496.00
2023-04-15T00:01:11.295Z,498.00
2023-04-15T00:02:11.350Z,500.00
2023-04-15T00:03:11.453Z,502.00
2023-04-15T00:04:11.317Z,502.00
2023-04-15T00:05:11.253Z,502.00
2023-04-15T00:06:11.227Z,503.00
2023-04-15T00:07:11.212Z,503.00
2023-04-15T00:08:11.290Z,504.00
2023-04-15T00:09:11.186Z,505.00
2023-04-15T00:10:11.190Z,504.00
2023-04-15T00:11:11.183Z,505.00
2023-04-15T00:12:11.173Z,503.00
2023-04-15T00:13:11.180Z,500.00
2023-04-15T00:14:11.151Z,500.00
2023-04-15T00:15:11.144Z,500.00
2023-04-15T00:16:11.212Z,499.00
2023-04-15T00:17:11.129Z,498.00
2023-04-15T00:18:11.129Z,497.00
2023-04-15T00:19:11.116Z,496.00
2023-04-15T00:20:11.111Z,497.00
2023-04-15T00:21:11.100Z,494.00
2023-04-15T00:22:11.090Z,490.00
2023-04-15T00:23:11.120Z,491.00
2023-04-15T00:24:11.152Z,493.00
2023-04-15T00:25:11.184Z,495.00
2023-04-15T00:26:11.209Z,494.00
2023-04-15T00:27:11.224Z,494.00
2023-04-15T00:28:11.232Z,494.00
2023-04-15T00:29:11.248Z,496.00
2023-04-15T00:30:11.248Z,495.00
2023-04-15T00:31:11.312Z,496.00
2023-04-15T00:32:11.263Z,498.00
2023-04-15T00:33:11.314Z,497.00
2023-04-15T00:34:11.341Z,495.00
2023-04-15T00:35:11.407Z,496.00
2023-04-15T00:36:11.428Z,496.00
2023-04-15T00:37:11.449Z,496.00
2023-04-15T00:38:11.452Z,495.00
2023-04-15T00:39:11.468Z,496.00
2023-04-15T00:40:11.443Z,495.00
2023-04-15T00:41:11.422Z,496.00
2023-04-15T00:42:11.414Z,495.00
2023-04-15T00:43:11.402Z,494.00
2023-04-15T00:44:11.409Z,494.00
2023-04-15T00:45:11.387Z,495.00
2023-04-15T00:46:11.422Z,495.00
2023-04-15T00:47:11.363Z,495.00
2023-04-15T00:48:11.352Z,495.00
2023-04-15T00:49:11.350Z,496.00
2023-04-15T00:50:11.320Z,493.00
2023-04-15T00:51:11.314Z,495.00
2023-04-15T00:52:11.300Z,494.00
2023-04-15T00:53:11.297Z,495.00
2023-04-15T00:54:11.265Z,493.00
2023-04-15T00:55:11.300Z,492.00
2023-04-15T00:56:11.230Z,493.00
2023-04-15T00:57:11.231Z,496.00
2023-04-15T00:58:11.230Z,496.00
2023-04-15T00:59:11.201Z,496.00
2023-04-15T01:00:11.221Z,498.00
2023-04-15T01:01:11.194Z,498.00
2023-04-15T01:02:11.241Z,497.00
2023-04-15T01:03:11.368Z,499.00
2023-04-15T01:04:11.257Z,500.00
2023-04-15T01:05:11.160Z,500.00
2023-04-15T01:06:11.125Z,501.00
2023-04-15T01:07:11.128Z,499.00
2023-04-15T01:08:11.109Z,499.00
2023-04-15T01:09:11.107Z,498.00
2023-04-15T01:10:11.068Z,495.00
2023-04-15T01:11:11.070Z,493.00
2023-04-15T01:12:11.032Z,493.00
2023-04-15T01:13:11.032Z,492.00
2023-04-15T01:14:11.009Z,489.00
2023-04-15T01:15:10.993Z,489.00
2023-04-15T01:16:11.007Z,491.00
2023-04-15T01:17:10.959Z,494.00
2023-04-15T01:18:10.945Z,491.00
2023-04-15T01:19:10.954Z,490.00
2023-04-15T01:20:10.924Z,491.00
2023-04-15T01:21:10.900Z,492.00
2023-04-15T01:22:10.900Z,492.00
2023-04-15T01:23:10.892Z,489.00
2023-04-15T01:24:10.888Z,487.00
2023-04-15T01:25:10.898Z,487.00
2023-04-15T01:26:10.857Z,487.00
2023-04-15T01:27:10.850Z,487.00
2023-04-15T01:28:10.842Z,486.00
2023-04-15T01:29:10.840Z,486.00
2023-04-15T01:30:10.830Z,488.00
2023-04-15T01:31:10.865Z,486.00
2023-04-15T01:32:10.812Z,486.00
2023-04-15T01:33:10.804Z,485.00
2023-04-15T01:34:10.792Z,487.00
2023-04-15T01:35:10.801Z,484.00
2023-04-15T01:36:10.791Z,484.00
2023-04-15T01:37:10.770Z,483.00
2023-04-15T01:38:10.764Z,483.00
2023-04-15T01:39:10.759Z,486.00
2023-04-15T01:40:10.735Z,484.00
2023-04-15T01:41:10.736Z,480.00
2023-04-15T01:42:10.729Z,479.00
2023-04-15T01:43:10.735Z,482.00
2023-04-15T01:44:10.735Z,484.00
2023-04-15T01:45:10.706Z,485.00
2023-04-15T01:46:10.746Z,482.00
2023-04-15T01:47:10.707Z,483.00
2023-04-15T01:48:10.717Z,482.00
2023-04-15T01:49:10.732Z,486.00
2023-04-15T01:50:10.709Z,488.00
2023-04-15T01:51:10.749Z,489.00
2023-04-15T01:52:10.729Z,489.00
2023-04-15T01:53:10.693Z,490.00
2023-04-15T01:54:10.691Z,490.00
2023-04-15T01:55:10.674Z,488.00
2023-04-15T01:56:10.681Z,486.00
2023-04-15T01:57:10.672Z,484.00
2023-04-15T01:58:10.674Z,483.00
2023-04-15T01:59:10.684Z,484.00
2023-04-15T02:00:10.668Z,485.00
2023-04-15T02:01:10.708Z,484.00
2023-04-15T02:02:10.741Z,486.00
2023-04-15T02:03:10.693Z,489.00
2023-04-15T02:04:10.902Z,488.00
2023-04-15T02:05:10.637Z,486.00
2023-04-15T02:06:10.645Z,482.00
2023-04-15T02:07:10.634Z,482.00
2023-04-15T02:08:10.645Z,482.00
2023-04-15T02:09:10.615Z,483.00
2023-04-15T02:10:10.637Z,481.00
2023-04-15T02:11:10.606Z,480.00
2023-04-15T02:12:10.595Z,482.00
2023-04-15T02:13:10.595Z,482.00
2023-04-15T02:14:10.614Z,485.00
2023-04-15T02:15:10.596Z,486.00
2023-04-15T02:16:10.622Z,485.00
2023-04-15T02:17:10.612Z,482.00
2023-04-15T02:18:10.615Z,479.00
2023-04-15T02:19:10.604Z,478.00
2023-04-15T02:20:10.660Z,479.00
2023-04-15T02:21:10.620Z,480.00
2023-04-15T02:22:10.610Z,480.00
2023-04-15T02:23:10.603Z,479.00
2023-04-15T02:24:10.596Z,482.00
2023-04-15T02:25:10.614Z,482.00
2023-04-15T02:26:10.599Z,483.00
2023-04-15T02:27:10.628Z,482.00
2023-04-15T02:28:10.597Z,482.00
2023-04-15T02:29:10.627Z,481.00
2023-04-15T02:30:10.614Z,482.00
2023-04-15T02:31:10.652Z,484.00
2023-04-15T02:32:10.657Z,484.00
2023-04-15T02:33:10.645Z,481.00
2023-04-15T02:34:10.637Z,480.00
2023-04-15T02:35:10.657Z,480.00
2023-04-15T02:36:10.648Z,477.00
2023-04-15T02:37:10.661Z,479.00
2023-04-15T02:38:10.655Z,480.00
2023-04-15T02:39:10.684Z,481.00
2023-04-15T02:40:10.673Z,480.00
2023-04-15T02:41:10.670Z,480.00
2023-04-15T02:42:10.683Z,480.00
2023-04-15T02:43:10.687Z,479.00
2023-04-15T02:44:11.504Z,481.00
2023-04-15T02:45:10.724Z,476.00
2023-04-15T02:46:10.742Z,477.00
2023-04-15T02:47:10.713Z,475.00
2023-04-15T02:48:10.738Z,472.00
2023-04-15T02:49:10.752Z,469.00
2023-04-15T02:50:10.780Z,469.00
2023-04-15T02:51:10.766Z,470.00
2023-04-15T02:52:10.786Z,470.00
2023-04-15T02:53:10.823Z,468.00
2023-04-15T02:54:10.874Z,469.00
2023-04-15T02:55:10.907Z,468.00
2023-04-15T02:56:10.933Z,469.00
2023-04-15T02:57:11.010Z,469.00
2023-04-15T02:58:11.054Z,466.00
2023-04-15T02:59:11.118Z,467.00
2023-04-15T03:00:11.202Z,467.00
2023-04-15T03:01:11.277Z,467.00
2023-04-15T03:02:11.428Z,464.00
2023-04-15T03:03:11.498Z,465.00
2023-04-15T03:04:11.586Z,465.00
2023-04-15T03:05:11.453Z,466.00
2023-04-15T03:06:11.480Z,460.00
2023-04-15T03:07:11.499Z,458.00
2023-04-15T03:08:11.557Z,456.00
2023-04-15T03:09:11.567Z,456.00
2023-04-15T03:10:11.624Z,458.00
2023-04-15T03:11:11.646Z,457.00
2023-04-15T03:12:11.670Z,457.00
2023-04-15T03:13:11.715Z,454.00
2023-04-15T03:14:11.756Z,456.00
2023-04-15T03:15:11.814Z,457.00
2023-04-15T03:16:11.858Z,455.00
2023-04-15T03:17:11.865Z,455.00
2023-04-15T03:18:11.913Z,454.00
2023-04-15T03:19:11.925Z,453.00
2023-04-15T03:20:11.981Z,455.00
2023-04-15T03:21:11.975Z,457.00
2023-04-15T03:22:11.982Z,454.00
2023-04-15T03:23:11.989Z,455.00
2023-04-15T03:24:11.998Z,458.00
2023-04-15T03:25:12.027Z,455.00
2023-04-15T03:26:12.034Z,458.00
2023-04-15T03:27:12.053Z,455.00
2023-04-15T03:28:12.069Z,454.00
2023-04-15T03:29:12.114Z,456.00
2023-04-15T03:30:12.110Z,457.00
2023-04-15T03:31:12.189Z,451.00
2023-04-15T03:32:12.154Z,453.00
2023-04-15T03:33:12.159Z,452.00
2023-04-15T03:34:12.177Z,451.00
2023-04-15T03:35:12.207Z,453.00
2023-04-15T03:36:12.215Z,453.00
2023-04-15T03:37:12.257Z,454.00
2023-04-15T03:38:12.250Z,451.00
2023-04-15T03:39:12.280Z,453.00
2023-04-15T03:40:12.326Z,453.00
2023-04-15T03:41:12.359Z,454.00
2023-04-15T03:42:12.390Z,458.00
2023-04-15T03:43:12.443Z,457.00
2023-04-15T03:44:12.489Z,458.00
2023-04-15T03:45:12.560Z,459.00
2023-04-15T03:46:12.658Z,457.00
2023-04-15T03:47:12.663Z,458.00
2023-04-15T03:48:17.905Z,455.00
2023-04-15T03:49:13.745Z,456.00
2023-04-15T03:50:12.797Z,454.00
2023-04-15T03:51:12.784Z,455.00
2023-04-15T03:52:12.829Z,454.00
2023-04-15T03:53:12.851Z,452.00
2023-04-15T03:54:12.859Z,454.00
2023-04-15T03:55:12.885Z,453.00
2023-04-15T03:56:12.874Z,451.00
2023-04-15T03:57:12.900Z,451.00
2023-04-15T03:58:12.981Z,454.00
2023-04-15T03:59:12.929Z,452.00
2023-04-15T04:00:12.971Z,450.00
2023-04-15T04:01:13.002Z,453.00
2023-04-15T04:02:13.059Z,451.00
2023-04-15T04:03:13.126Z,450.00
2023-04-15T04:04:13.151Z,450.00
2023-04-15T04:05:13.082Z,453.00
2023-04-15T04:06:13.133Z,451.00
2023-04-15T04:07:13.194Z,451.00
2023-04-15T04:08:13.253Z,451.00
2023-04-15T04:09:13.324Z,450.00
2023-04-15T04:10:13.402Z,451.00
2023-04-15T04:11:13.483Z,450.00
2023-04-15T04:12:13.535Z,450.00
2023-04-15T04:13:13.609Z,451.00
2023-04-15T04:14:13.707Z,454.00
2023-04-15T04:15:13.773Z,455.00
2023-04-15T04:16:13.897Z,454.00
2023-04-15T04:17:13.973Z,455.00
2023-04-15T04:18:13.947Z,453.00
2023-04-15T04:19:13.957Z,455.00
2023-04-15T04:20:13.967Z,455.00
2023-04-15T04:21:14.004Z,453.00
2023-04-15T04:22:14.019Z,454.00
2023-04-15T04:23:14.044Z,450.00
2023-04-15T04:24:14.058Z,450.00
2023-04-15T04:25:14.092Z,455.00
2023-04-15T04:26:14.121Z,455.00
2023-04-15T04:27:14.121Z,450.00
2023-04-15T04:28:14.171Z,449.00
2023-04-15T04:29:14.203Z,448.00
2023-04-15T04:30:14.296Z,451.00
2023-04-15T04:31:14.377Z,452.00
2023-04-15T04:32:14.488Z,452.00
2023-04-15T04:33:14.531Z,453.00
2023-04-15T04:34:14.610Z,453.00
2023-04-15T04:35:14.706Z,452.00
2023-04-15T04:36:14.804Z,452.00
2023-04-15T04:37:14.879Z,453.00
2023-04-15T04:38:14.964Z,455.00
2023-04-15T04:39:15.052Z,457.00
2023-04-15T04:40:15.119Z,457.00
2023-04-15T04:41:15.240Z,457.00
2023-04-15T04:42:15.282Z,454.00
2023-04-15T04:43:15.376Z,455.00
2023-04-15T04:44:15.465Z,456.00
2023-04-15T04:45:15.556Z,456.00
2023-04-15T04:46:15.637Z,455.00
2023-04-15T04:47:15.706Z,458.00
2023-04-15T04:48:15.791Z,455.00
2023-04-15T04:49:15.887Z,455.00
2023-04-15T04:50:15.976Z,454.00
2023-04-15T04:51:16.070Z,455.00
2023-04-15T04:52:16.130Z,456.00
2023-04-15T04:53:16.226Z,454.00
2023-04-15T04:54:16.305Z,453.00
2023-04-15T04:55:16.394Z,454.00
2023-04-15T04:56:16.495Z,453.00
2023-04-15T04:57:16.607Z,453.00
2023-04-15T04:58:16.662Z,454.00
2023-04-15T04:59:17.012Z,451.00
2023-04-15T05:00:16.855Z,452.00
2023-04-15T05:01:16.954Z,452.00
2023-04-15T05:02:17.130Z,454.00
2023-04-15T05:03:17.424Z,452.00
2023-04-15T05:04:17.286Z,453.00
2023-04-15T05:05:17.281Z,455.00
2023-04-15T05:06:17.386Z,455.00
2023-04-15T05:07:17.467Z,454.00
2023-04-15T05:08:17.562Z,457.00
2023-04-15T05:09:17.663Z,457.00
2023-04-15T05:10:17.762Z,457.00
2023-04-15T05:11:17.854Z,457.00
2023-04-15T05:12:17.941Z,459.00
2023-04-15T05:13:18.034Z,462.00
2023-04-15T05:14:18.161Z,459.00
2023-04-15T05:15:18.222Z,458.00
2023-04-15T05:16:18.448Z,460.00
2023-04-15T05:17:18.398Z,459.00
2023-04-15T05:18:18.461Z,460.00
2023-04-15T05:19:18.531Z,461.00
2023-04-15T05:20:18.627Z,462.00
2023-04-15T05:21:18.686Z,461.00
2023-04-15T05:22:18.742Z,458.00
2023-04-15T05:23:18.839Z,457.00
2023-04-15T05:24:18.912Z,454.00
2023-04-15T05:25:18.983Z,452.00
2023-04-15T05:26:19.075Z,449.00
2023-04-15T05:27:19.150Z,454.00
2023-04-15T05:28:19.252Z,453.00
2023-04-15T05:29:19.362Z,450.00
2023-04-15T05:30:19.451Z,447.00
2023-04-15T05:31:19.600Z,445.00
2023-04-15T05:32:19.679Z,446.00
2023-04-15T05:33:19.687Z,444.00
2023-04-15T05:34:19.731Z,447.00
2023-04-15T05:35:19.856Z,448.00
2023-04-15T05:36:19.922Z,446.00
2023-04-15T05:37:20.007Z,448.00
2023-04-15T05:38:20.059Z,448.00
2023-04-15T05:39:20.151Z,452.00
2023-04-15T05:40:20.212Z,454.00
2023-04-15T05:41:20.306Z,455.00
2023-04-15T05:42:20.374Z,458.00
2023-04-15T05:43:20.465Z,456.00
2023-04-15T05:44:20.579Z,453.00
2023-04-15T05:45:20.657Z,452.00
2023-04-15T05:46:20.795Z,452.00
2023-04-15T05:47:20.844Z,453.00
2023-04-15T05:49:39.852Z,460.00
2023-04-15T05:50:39.849Z,461.00
2023-04-15T05:51:39.816Z,462.00
2023-04-15T05:52:39.813Z,462.00
2023-04-15T05:53:39.790Z,461.00
2023-04-15T05:54:39.781Z,461.00
2023-04-15T05:55:39.760Z,460.00
2023-04-15T05:56:39.748Z,461.00
2023-04-15T05:57:39.744Z,461.00
2023-04-15T05:58:39.725Z,461.00
2023-04-15T05:59:39.709Z,463.00
2023-04-15T06:00:39.717Z,460.00
2023-04-15T06:01:39.697Z,461.00
2023-04-15T06:02:39.728Z,458.00
2023-04-15T06:03:39.750Z,460.00
2023-04-15T06:04:39.699Z,459.00
2023-04-15T06:05:39.633Z,461.00
2023-04-15T06:06:39.632Z,457.00
2023-04-15T06:07:39.619Z,457.00
2023-04-15T06:08:39.605Z,458.00
2023-04-15T06:09:39.590Z,459.00
2023-04-15T06:10:39.577Z,458.00
2023-04-15T06:11:39.566Z,458.00
2023-04-15T06:12:39.558Z,459.00
2023-04-15T06:13:39.538Z,457.00
2023-04-15T06:14:39.535Z,459.00
2023-04-15T06:15:39.526Z,458.00
2023-04-15T06:16:39.535Z,453.00
2023-04-15T06:17:39.548Z,454.00
2023-04-15T06:18:39.478Z,454.00
2023-04-15T06:19:39.473Z,453.00
2023-04-15T06:20:39.461Z,451.00
2023-04-15T06:21:39.451Z,451.00
2023-04-15T06:22:39.444Z,453.00
2023-04-15T06:23:39.437Z,454.00
2023-04-15T06:24:39.435Z,455.00
2023-04-15T06:25:39.420Z,456.00
2023-04-15T06:26:39.427Z,458.00
2023-04-15T06:27:39.398Z,457.00
2023-04-15T06:28:39.397Z,458.00
2023-04-15T06:29:39.364Z,457.00
2023-04-15T06:30:39.361Z,455.00
2023-04-15T06:31:39.386Z,454.00
2023-04-15T06:32:39.352Z,455.00
2023-04-15T06:33:39.320Z,455.00
2023-04-15T06:34:39.315Z,460.00
2023-04-15T06:35:39.326Z,457.00
2023-04-15T06:36:39.362Z,457.00
2023-04-15T06:37:39.305Z,456.00
2023-04-15T06:38:39.296Z,454.00
2023-04-15T06:39:39.276Z,452.00
2023-04-15T06:40:39.251Z,450.00
2023-04-15T06:41:39.273Z,448.00
2023-04-15T06:42:39.247Z,451.00
2023-04-15T06:43:39.248Z,450.00
2023-04-15T06:44:39.286Z,450.00
2023-04-15T06:45:39.415Z,450.00
2023-04-15T06:46:39.402Z,449.00
2023-04-15T06:47:39.504Z,449.00
2023-04-15T06:48:39.494Z,449.00
2023-04-15T06:49:39.546Z,447.00
2023-04-15T06:50:39.584Z,449.00
2023-04-15T06:51:39.621Z,448.00
2023-04-15T06:52:39.617Z,450.00
2023-04-15T06:53:39.607Z,453.00
2023-04-15T06:54:39.635Z,449.00
2023-04-15T06:55:39.694Z,448.00
2023-04-15T06:56:39.714Z,451.00
2023-04-15T06:57:39.756Z,451.00
2023-04-15T06:58:39.809Z,452.00
2023-04-15T06:59:39.861Z,451.00
2023-04-15T07:00:39.901Z,450.00
2023-04-15T07:01:39.952Z,450.00
2023-04-15T07:02:40.101Z,449.00
2023-04-15T07:03:40.006Z,450.00
2023-04-15T07:04:40.264Z,450.00
2023-04-15T07:05:40.061Z,448.00
2023-04-15T07:06:40.064Z,448.00
2023-04-15T07:07:40.102Z,446.00
2023-04-15T07:08:40.136Z,446.00
2023-04-15T07:09:40.204Z,446.00
2023-04-15T07:10:40.250Z,445.00
2023-04-15T07:11:40.255Z,446.00
2023-04-15T07:12:40.245Z,448.00
2023-04-15T07:13:40.221Z,449.00
2023-04-15T07:14:40.214Z,449.00
2023-04-15T07:15:40.186Z,448.00
2023-04-15T07:16:40.271Z,447.00
2023-04-15T07:17:40.253Z,449.00
2023-04-15T07:18:40.171Z,452.00
2023-04-15T07:19:40.216Z,453.00
2023-04-15T07:20:40.286Z,454.00
2023-04-15T07:21:41.949Z,457.00
2023-04-15T07:22:40.407Z,457.00
2023-04-15T07:23:40.498Z,458.00
2023-04-15T07:24:40.509Z,456.00
2023-04-15T07:25:40.560Z,458.00
2023-04-15T07:26:40.641Z,455.00
2023-04-15T07:27:40.682Z,453.00
2023-04-15T07:28:40.729Z,449.00
2023-04-15T07:29:40.804Z,451.00
2023-04-15T07:30:40.870Z,448.00
2023-04-15T07:31:40.899Z,444.00
2023-04-15T07:32:41.010Z,442.00
2023-04-15T07:33:40.999Z,442.00
2023-04-15T07:34:41.063Z,442.00
2023-04-15T07:35:41.104Z,443.00
2023-04-15T07:36:41.167Z,444.00
2023-04-15T07:37:41.241Z,441.00
2023-04-15T07:38:41.265Z,444.00
2023-04-15T07:39:41.301Z,443.00
2023-04-15T07:40:41.344Z,446.00
2023-04-15T07:41:41.378Z,445.00
2023-04-15T07:42:41.536Z,445.00
2023-04-15T07:43:41.451Z,443.00
2023-04-15T07:44:41.505Z,445.00
2023-04-15T07:45:41.576Z,446.00
2023-04-15T07:46:41.600Z,447.00
2023-04-15T07:47:41.658Z,447.00
2023-04-15T07:48:41.658Z,446.00
2023-04-15T07:49:41.704Z,447.00
2023-04-15T07:50:41.743Z,443.00
2023-04-15T07:51:41.818Z,446.00
2023-04-15T07:52:41.868Z,448.00
2023-04-15T07:53:41.905Z,446.00
2023-04-15T07:54:41.950Z,448.00
2023-04-15T07:55:41.987Z,447.00
2023-04-15T07:56:42.075Z,447.00
2023-04-15T07:57:42.111Z,449.00
2023-04-15T07:58:42.171Z,448.00
2023-04-15T07:59:42.208Z,447.00
2023-04-15T08:00:42.272Z,448.00
2023-04-15T08:01:42.298Z,448.00
2023-04-15T08:02:42.547Z,446.00
2023-04-15T08:03:42.645Z,446.00
2023-04-15T08:04:42.533Z,443.00
2023-04-15T08:05:42.431Z,445.00
2023-04-15T08:06:42.431Z,442.00
2023-04-15T08:07:42.422Z,443.00
2023-04-15T08:08:42.374Z,441.00
2023-04-15T08:09:42.348Z,445.00
2023-04-15T08:10:42.328Z,447.00
2023-04-15T08:11:42.325Z,447.00
2023-04-15T08:12:42.314Z,445.00
2023-04-15T08:13:42.326Z,441.00
2023-04-15T08:14:42.377Z,439.00
2023-04-15T08:15:42.436Z,440.00
2023-04-15T08:16:42.525Z,441.00
2023-04-15T08:17:42.573Z,441.00
2023-04-15T08:18:42.476Z,444.00
2023-04-15T08:19:42.469Z,443.00
2023-04-15T08:20:42.446Z,445.00
2023-04-15T08:21:42.418Z,444.00
2023-04-15T08:22:42.430Z,442.00
2023-04-15T08:23:42.400Z,440.00
2023-04-15T08:24:42.372Z,439.00
2023-04-15T08:25:42.384Z,438.00
2023-04-15T08:26:42.447Z,439.00
2023-04-15T08:27:42.470Z,439.00
2023-04-15T08:28:42.495Z,441.00
2023-04-15T08:29:42.547Z,438.00
2023-04-15T08:30:42.595Z,440.00
2023-04-15T08:31:42.686Z,441.00
2023-04-15T08:32:42.716Z,441.00
2023-04-15T08:33:42.722Z,442.00
2023-04-15T08:34:42.741Z,443.00
2023-04-15T08:35:42.782Z,442.00
2023-04-15T08:36:42.827Z,437.00
2023-04-15T08:37:42.905Z,438.00
2023-04-15T08:38:42.881Z,438.00
2023-04-15T08:39:42.910Z,435.00
2023-04-15T08:40:42.962Z,436.00
2023-04-15T08:41:42.990Z,436.00
2023-04-15T08:42:44.431Z,435.00
2023-04-15T08:43:43.042Z,437.00
2023-04-15T08:44:43.014Z,439.00
2023-04-15T08:45:42.990Z,438.00
2023-04-15T08:46:43.015Z,441.00
2023-04-15T08:47:43.054Z,442.00
2023-04-15T08:48:42.966Z,442.00
2023-04-15T08:49:42.876Z,441.00
2023-04-15T08:50:42.814Z,440.00
2023-04-15T08:51:42.804Z,441.00
2023-04-15T08:52:42.796Z,441.00
2023-04-15T08:53:42.696Z,442.00
2023-04-15T08:54:42.638Z,441.00
2023-04-15T08:55:42.616Z,441.00
2023-04-15T08:56:42.625Z,442.00
2023-04-15T08:57:42.514Z,442.00
2023-04-15T08:58:42.459Z,439.00
2023-04-15T08:59:42.429Z,439.00
2023-04-15T09:00:42.373Z,439.00
2023-04-15T09:01:42.381Z,441.00
2023-04-15T09:02:42.449Z,440.00
2023-04-15T09:03:42.457Z,439.00
2023-04-15T09:04:42.352Z,439.00
2023-04-15T09:05:42.359Z,438.00
2023-04-15T09:06:42.370Z,438.00
2023-04-15T09:07:42.370Z,437.00
2023-04-15T09:08:42.354Z,435.00
2023-04-15T09:09:42.344Z,436.00
2023-04-15T09:10:42.336Z,436.00
2023-04-15T09:11:42.332Z,436.00
2023-04-15T09:12:42.349Z,437.00
2023-04-15T09:13:42.342Z,439.00
2023-04-15T09:14:42.325Z,440.00
2023-04-15T09:15:42.323Z,438.00
2023-04-15T09:16:42.367Z,436.00
2023-04-15T09:17:42.319Z,436.00
2023-04-15T09:18:42.300Z,436.00
2023-04-15T09:19:42.287Z,438.00
2023-04-15T09:20:42.283Z,439.00
2023-04-15T09:21:42.239Z,437.00
2023-04-15T09:22:42.257Z,436.00
2023-04-15T09:23:42.205Z,436.00
2023-04-15T09:24:42.213Z,438.00
2023-04-15T09:25:42.157Z,437.00
2023-04-15T09:26:42.163Z,437.00
2023-04-15T09:27:42.121Z,438.00
2023-04-15T09:28:42.098Z,441.00
2023-04-15T09:29:42.079Z,442.00
2023-04-15T09:30:42.072Z,441.00
2023-04-15T09:31:41.986Z,440.00
2023-04-15T09:32:41.956Z,439.00
2023-04-15T09:33:41.890Z,441.00
2023-04-15T09:34:41.842Z,441.00
2023-04-15T09:35:41.790Z,437.00
2023-04-15T09:36:41.741Z,436.00
2023-04-15T09:37:41.700Z,438.00
2023-04-15T09:38:41.620Z,436.00
2023-04-15T09:39:41.573Z,436.00
2023-04-15T09:40:41.515Z,437.00
2023-04-15T09:41:41.465Z,436.00
2023-04-15T09:42:41.399Z,438.00
2023-04-15T09:43:41.338Z,436.00
2023-04-15T09:44:41.278Z,436.00
2023-04-15T09:45:41.287Z,434.00
2023-04-15T09:46:41.190Z,434.00
2023-04-15T09:47:41.102Z,436.00
2023-04-15T09:48:41.065Z,438.00
2023-04-15T09:49:41.047Z,440.00
2023-04-15T09:50:40.945Z,435.00
2023-04-15T09:51:42.174Z,438.00
2023-04-15T09:52:40.833Z,438.00
2023-04-15T09:53:40.795Z,436.00
2023-04-15T09:54:40.759Z,435.00
2023-04-15T09:55:40.739Z,437.00
2023-04-15T09:56:40.710Z,437.00
2023-04-15T09:57:40.725Z,436.00
2023-04-15T09:58:40.692Z,438.00
2023-04-15T09:59:40.634Z,436.00
2023-04-15T10:00:40.537Z,437.00
2023-04-15T10:01:40.557Z,438.00
2023-04-15T10:02:40.585Z,438.00
2023-04-15T10:03:40.573Z,436.00
2023-04-15T10:04:40.436Z,436.00
2023-04-15T10:05:40.355Z,435.00
2023-04-15T10:06:40.302Z,436.00
2023-04-15T10:07:40.246Z,432.00
2023-04-15T10:08:40.170Z,432.00
2023-04-15T10:09:40.121Z,431.00
2023-04-15T10:10:40.049Z,431.00
2023-04-15T10:11:39.984Z,433.00
2023-04-15T10:12:39.924Z,431.00
2023-04-15T10:13:39.865Z,432.00
2023-04-15T10:14:39.841Z,433.00
2023-04-15T10:15:39.866Z,434.00
2023-04-15T10:16:39.817Z,437.00
2023-04-15T10:17:39.865Z,436.00
2023-04-15T10:18:39.819Z,436.00
2023-04-15T10:19:39.811Z,435.00
2023-04-15T10:20:39.811Z,437.00
2023-04-15T10:21:39.827Z,437.00
2023-04-15T10:22:39.821Z,434.00
2023-04-15T10:23:39.758Z,436.00
2023-04-15T10:24:39.701Z,436.00
2023-04-15T10:25:39.643Z,436.00
2023-04-15T10:26:39.591Z,438.00
2023-04-15T10:27:39.513Z,437.00
2023-04-15T10:28:39.443Z,437.00
2023-04-15T10:29:39.393Z,438.00
2023-04-15T10:30:39.320Z,436.00
2023-04-15T10:31:39.308Z,437.00
2023-04-15T10:32:39.203Z,439.00
2023-04-15T10:33:39.194Z,439.00
2023-04-15T10:34:39.189Z,443.00
2023-04-15T10:35:39.179Z,443.00
2023-04-15T10:36:39.154Z,442.00
2023-04-15T10:37:39.128Z,439.00
2023-04-15T10:38:39.097Z,440.00
2023-04-15T10:39:39.128Z,439.00
2023-04-15T10:40:39.081Z,442.00
2023-04-15T10:41:39.082Z,444.00
2023-04-15T10:42:39.063Z,444.00
2023-04-15T10:43:39.057Z,443.00
2023-04-15T10:44:39.076Z,444.00
2023-04-15T10:45:39.054Z,444.00
2023-04-15T10:46:39.121Z,443.00
2023-04-15T10:47:39.081Z,439.00
2023-04-15T10:48:39.021Z,438.00
2023-04-15T10:49:39.031Z,438.00
2023-04-15T10:50:39.008Z,436.00
2023-04-15T10:51:39.007Z,437.00
2023-04-15T10:52:38.993Z,440.00
2023-04-15T10:53:38.986Z,438.00
2023-04-15T10:54:39.019Z,440.00
2023-04-15T10:55:38.964Z,435.00
2023-04-15T10:56:38.951Z,434.00
2023-04-15T10:57:38.957Z,434.00
2023-04-15T10:58:38.928Z,437.00
2023-04-15T10:59:38.941Z,437.00
2023-04-15T11:00:38.935Z,438.00
2023-04-15T11:01:38.937Z,436.00
2023-04-15T11:02:39.069Z,437.00
2023-04-15T11:03:39.206Z,437.00
2023-04-15T11:04:40.948Z,438.00
2023-04-15T11:05:38.862Z,438.00
2023-04-15T11:06:38.775Z,439.00
2023-04-15T11:07:38.713Z,438.00
2023-04-15T11:08:38.653Z,435.00
2023-04-15T11:09:38.614Z,436.00
2023-04-15T11:10:38.588Z,437.00
2023-04-15T11:11:38.471Z,437.00
2023-04-15T11:12:38.429Z,439.00
2023-04-15T11:13:38.362Z,437.00
2023-04-15T11:14:38.280Z,437.00
2023-04-15T11:15:38.209Z,436.00
2023-04-15T11:16:38.162Z,437.00
2023-04-15T11:17:38.134Z,436.00
2023-04-15T11:18:38.037Z,436.00
2023-04-15T11:19:37.966Z,435.00
2023-04-15T11:20:37.894Z,436.00
2023-04-15T11:21:37.825Z,434.00
2023-04-15T11:22:37.779Z,436.00
2023-04-15T11:23:37.684Z,434.00
2023-04-15T11:24:37.650Z,437.00
2023-04-15T11:25:37.560Z,438.00
2023-04-15T11:26:37.500Z,436.00
2023-04-15T11:27:37.439Z,436.00
2023-04-15T11:28:38.282Z,435.00
2023-04-15T11:29:37.342Z,437.00
2023-04-15T11:30:37.260Z,437.00
2023-04-15T11:31:37.206Z,437.00
2023-04-15T11:32:37.143Z,432.00
2023-04-15T11:33:37.060Z,431.00
2023-04-15T11:34:37.002Z,432.00
2023-04-15T11:35:36.991Z,435.00
2023-04-15T11:36:36.866Z,435.00
2023-04-15T11:37:36.814Z,435.00
2023-04-15T11:38:36.731Z,436.00
2023-04-15T11:39:36.662Z,438.00
2023-04-15T11:40:36.633Z,438.00
2023-04-15T11:41:36.544Z,437.00
2023-04-15T11:42:48.583Z,436.00
2023-04-15T11:43:37.407Z,436.00
2023-04-15T11:44:36.348Z,437.00
2023-04-15T11:45:36.310Z,437.00
2023-04-15T11:46:36.244Z,439.00
2023-04-15T11:47:36.217Z,439.00
2023-04-15T11:48:36.114Z,436.00
2023-04-15T11:49:36.044Z,435.00
2023-04-15T11:50:35.979Z,437.00
2023-04-15T11:51:35.912Z,436.00
2023-04-15T11:52:35.851Z,437.00
2023-04-15T11:53:35.774Z,437.00
2023-04-15T11:54:35.737Z,439.00
2023-04-15T11:55:35.742Z,437.00
2023-04-15T11:56:35.661Z,436.00
2023-04-15T11:57:35.594Z,437.00
2023-04-15T11:58:35.546Z,436.00
2023-04-15T11:59:44.484Z,436.00
2023-04-15T12:00:36.414Z,437.00
2023-04-15T12:01:35.466Z,436.00
2023-04-15T12:02:35.335Z,436.00
2023-04-15T12:03:35.395Z,437.00
2023-04-15T12:04:35.362Z,437.00
2023-04-15T12:05:35.097Z,437.00
2023-04-15T12:06:35.086Z,437.00
2023-04-15T12:07:34.957Z,439.00
2023-04-15T12:08:34.874Z,440.00
2023-04-15T12:09:34.817Z,442.00
2023-04-15T12:10:34.761Z,441.00
2023-04-15T12:11:34.729Z,439.00
2023-04-15T12:12:34.713Z,439.00
2023-04-15T12:13:34.700Z,440.00
2023-04-15T12:14:34.717Z,437.00
2023-04-15T12:15:34.718Z,438.00
2023-04-15T12:16:37.100Z,440.00
2023-04-15T12:17:51.619Z,441.00
2023-04-15T12:18:35.538Z,441.00
2023-04-15T12:19:34.470Z,440.00
2023-04-15T12:20:34.395Z,439.00
2023-04-15T12:21:34.327Z,440.00
2023-04-15T12:22:34.252Z,440.00
2023-04-15T12:23:34.188Z,441.00
2023-04-15T12:24:34.117Z,443.00
2023-04-15T12:25:34.073Z,442.00
2023-04-15T12:26:33.976Z,442.00
2023-04-15T12:27:33.904Z,442.00
2023-04-15T12:28:33.826Z,442.00
2023-04-15T12:29:33.770Z,442.00